Terminal Aerodrome Forecast
Issued by NWS

Home | Current Version | Previous Version | Graphics & Text | Print | Product List | Glossary On
Versions: 1 2 3 4 5 6 7 8 9 10 11 12 13 14 15 16 17 18 19 20 21 22 23
000
FTUS43 KABR 301500 AAA
TAFATY
TAF AMD
KATY 301515Z 3015/0112 12012G21KT P6SM OVC006
     FM301800 15018G28KT P6SM -SHRA OVC030
     FM302100 15022G31KT P6SM SCT045
     FM010000 16017G25KT P6SM VCTS OVC040CB
     FM010500 18012KT P6SM BKN100=

USA.gov is the U.S. government's official web portal to all federal, state and local government web resources and services.